createdAt,value
2018-07-22T00:00:36.152Z,22.68
2018-07-22T00:01:36.206Z,22.68
2018-07-22T00:02:36.315Z,22.68
2018-07-22T00:03:36.255Z,22.68
2018-07-22T00:04:36.331Z,22.68
2018-07-22T00:05:36.314Z,22.67
2018-07-22T00:06:36.314Z,22.68
2018-07-22T00:07:36.232Z,22.68
2018-07-22T00:08:36.169Z,22.68
2018-07-22T00:09:36.420Z,22.68
2018-07-22T00:10:36.217Z,22.68
2018-07-22T00:11:36.273Z,22.67
2018-07-22T00:12:36.221Z,22.68
2018-07-22T00:13:36.320Z,22.68
2018-07-22T00:14:36.225Z,22.68
2018-07-22T00:15:36.248Z,22.67
2018-07-22T00:16:36.129Z,22.68
2018-07-22T00:17:36.123Z,22.66
2018-07-22T00:18:36.276Z,22.67
2018-07-22T00:19:36.321Z,22.67
2018-07-22T00:20:36.267Z,22.67
2018-07-22T00:21:36.124Z,22.67
2018-07-22T00:22:36.305Z,22.67
2018-07-22T00:23:36.355Z,22.67
2018-07-22T00:24:36.290Z,22.67
2018-07-22T00:25:36.391Z,22.67
2018-07-22T00:26:36.083Z,22.66
2018-07-22T00:27:36.229Z,22.66
2018-07-22T00:28:36.374Z,22.67
2018-07-22T00:29:36.173Z,22.67
2018-07-22T00:30:36.202Z,22.68
2018-07-22T00:31:36.197Z,22.67
2018-07-22T00:32:36.421Z,22.67
2018-07-22T00:33:36.247Z,22.66
2018-07-22T00:34:36.305Z,22.66
2018-07-22T00:35:36.076Z,22.67
2018-07-22T00:36:36.219Z,22.66
2018-07-22T00:37:36.194Z,22.66
2018-07-22T00:38:36.131Z,22.66
2018-07-22T00:39:36.438Z,22.66
2018-07-22T00:40:36.209Z,22.66
2018-07-22T00:41:36.166Z,22.65
2018-07-22T00:42:36.228Z,22.65
2018-07-22T00:43:36.251Z,22.65
2018-07-22T00:44:36.060Z,22.65
2018-07-22T00:45:36.135Z,22.66
2018-07-22T00:46:36.119Z,22.65
2018-07-22T00:47:36.233Z,22.65
2018-07-22T00:48:36.183Z,22.66
2018-07-22T00:49:36.118Z,22.65
2018-07-22T00:50:36.148Z,22.65
2018-07-22T00:51:36.254Z,22.65
2018-07-22T00:52:36.274Z,22.66
2018-07-22T00:53:36.030Z,22.65
2018-07-22T00:54:36.182Z,22.65
2018-07-22T00:55:36.119Z,22.66
2018-07-22T00:56:36.140Z,22.65
2018-07-22T00:57:36.287Z,22.65
2018-07-22T00:58:36.207Z,22.64
2018-07-22T00:59:36.285Z,22.65
2018-07-22T01:00:36.042Z,22.65
2018-07-22T01:01:36.234Z,22.64
2018-07-22T01:02:36.247Z,22.65
2018-07-22T01:03:36.197Z,22.64
2018-07-22T01:04:36.280Z,22.65
2018-07-22T01:05:36.187Z,22.64
2018-07-22T01:06:36.227Z,22.65
2018-07-22T01:07:36.370Z,22.65
2018-07-22T01:08:36.126Z,22.64
2018-07-22T01:09:36.109Z,22.64
2018-07-22T01:10:36.247Z,22.65
2018-07-22T01:11:36.424Z,22.64
2018-07-22T01:12:36.252Z,22.65
2018-07-22T01:13:36.382Z,22.65
2018-07-22T01:14:36.416Z,22.64
2018-07-22T01:15:36.133Z,22.64
2018-07-22T01:16:36.300Z,22.64
2018-07-22T01:17:36.067Z,22.64
2018-07-22T01:18:36.121Z,22.64
2018-07-22T01:19:36.219Z,22.64
2018-07-22T01:20:36.254Z,22.64
2018-07-22T01:21:36.299Z,22.64
2018-07-22T01:22:36.298Z,22.64
2018-07-22T01:23:36.344Z,22.64
2018-07-22T01:24:36.199Z,22.64
2018-07-22T01:25:36.068Z,22.64
2018-07-22T01:26:36.238Z,22.63
2018-07-22T01:27:36.289Z,22.64
2018-07-22T01:28:36.235Z,22.64
2018-07-22T01:29:36.352Z,22.63
2018-07-22T01:30:36.236Z,22.64
2018-07-22T01:31:36.140Z,22.64
2018-07-22T01:32:36.248Z,22.63
2018-07-22T01:33:36.228Z,22.63
2018-07-22T01:34:36.273Z,22.63
2018-07-22T01:35:36.168Z,22.63
2018-07-22T01:36:36.112Z,22.64
2018-07-22T01:37:36.279Z,22.63
2018-07-22T01:38:36.354Z,22.62
2018-07-22T01:39:36.162Z,22.62
2018-07-22T01:40:36.246Z,22.63
2018-07-22T01:41:36.255Z,22.63
2018-07-22T01:42:36.522Z,22.61
2018-07-22T01:43:36.280Z,22.63
2018-07-22T01:44:36.243Z,22.63
2018-07-22T01:45:36.172Z,22.63
2018-07-22T01:46:36.121Z,22.63
2018-07-22T01:47:36.018Z,22.62
2018-07-22T01:48:36.254Z,22.62
2018-07-22T01:49:36.167Z,22.63
2018-07-22T01:50:36.187Z,22.62
2018-07-22T01:51:36.141Z,22.61
2018-07-22T01:52:36.124Z,22.62
2018-07-22T01:53:36.195Z,22.61
2018-07-22T01:54:36.054Z,22.62
2018-07-22T01:55:36.209Z,22.63
2018-07-22T01:56:36.072Z,22.6
2018-07-22T01:57:36.121Z,22.62
2018-07-22T01:58:36.048Z,22.62
2018-07-22T01:59:36.132Z,22.61
2018-07-22T02:00:36.116Z,22.62
2018-07-22T02:01:36.258Z,22.61
2018-07-22T02:02:36.077Z,22.62
2018-07-22T02:03:35.958Z,22.61
2018-07-22T02:04:36.147Z,22.61
2018-07-22T02:05:36.075Z,22.59
2018-07-22T02:06:36.286Z,22.61
2018-07-22T02:07:36.187Z,22.61
2018-07-22T02:08:36.076Z,22.61
2018-07-22T02:09:36.249Z,22.61
2018-07-22T02:10:36.274Z,22.62
2018-07-22T02:11:36.076Z,22.61
2018-07-22T02:12:35.946Z,22.62
2018-07-22T02:13:36.216Z,22.59
2018-07-22T02:14:36.080Z,22.62
2018-07-22T02:15:36.051Z,22.61
2018-07-22T02:16:36.230Z,22.59
2018-07-22T02:17:36.169Z,22.61
2018-07-22T02:18:36.228Z,22.61
2018-07-22T02:19:36.053Z,22.59
2018-07-22T02:20:36.176Z,22.6
2018-07-22T02:21:36.260Z,22.6
2018-07-22T02:22:36.393Z,22.61
2018-07-22T02:23:35.994Z,22.6
2018-07-22T02:24:36.247Z,22.61
2018-07-22T02:25:36.199Z,22.59
2018-07-22T02:26:36.222Z,22.61
2018-07-22T02:27:36.140Z,22.6
2018-07-22T02:28:36.264Z,22.59
2018-07-22T02:29:36.139Z,22.59
2018-07-22T02:30:36.053Z,22.6
2018-07-22T02:31:36.253Z,22.59
2018-07-22T02:32:36.196Z,22.61
2018-07-22T02:33:36.242Z,22.6
2018-07-22T02:34:36.280Z,22.59
2018-07-22T02:35:36.120Z,22.59
2018-07-22T02:36:36.160Z,22.59
2018-07-22T02:37:36.301Z,22.6
2018-07-22T02:38:36.119Z,22.58
2018-07-22T02:39:36.162Z,22.59
2018-07-22T02:40:36.255Z,22.59
2018-07-22T02:41:36.331Z,22.59
2018-07-22T02:42:36.144Z,22.58
2018-07-22T02:43:36.332Z,22.58
2018-07-22T02:44:36.241Z,22.58
2018-07-22T02:45:36.255Z,22.58
2018-07-22T02:46:36.478Z,22.59
2018-07-22T02:47:36.470Z,22.58
2018-07-22T02:48:36.132Z,22.58
2018-07-22T02:49:36.123Z,22.58
2018-07-22T02:50:36.119Z,22.58
2018-07-22T02:51:36.318Z,22.59
2018-07-22T02:52:36.209Z,22.58
2018-07-22T02:53:36.180Z,22.58
2018-07-22T02:54:36.449Z,22.58
2018-07-22T02:55:36.194Z,22.58
2018-07-22T02:56:36.132Z,22.57
2018-07-22T02:57:36.011Z,22.58
2018-07-22T02:58:36.262Z,22.58
2018-07-22T02:59:36.279Z,22.58
2018-07-22T03:00:36.245Z,22.57
2018-07-22T03:01:36.336Z,22.58
2018-07-22T03:02:36.141Z,22.57
2018-07-22T03:03:36.335Z,22.57
2018-07-22T03:04:36.239Z,22.57
2018-07-22T03:05:36.381Z,22.57
2018-07-22T03:06:36.264Z,22.58
2018-07-22T03:07:36.316Z,22.58
2018-07-22T03:08:36.207Z,22.57
2018-07-22T03:09:36.453Z,22.57
2018-07-22T03:10:36.224Z,22.58
2018-07-22T03:11:36.319Z,22.56
2018-07-22T03:12:36.263Z,22.56
2018-07-22T03:13:36.270Z,22.58
2018-07-22T03:14:36.294Z,22.57
2018-07-22T03:15:35.999Z,22.57
2018-07-22T03:16:36.236Z,22.57
2018-07-22T03:17:36.037Z,22.57
2018-07-22T03:18:36.169Z,22.57
2018-07-22T03:19:36.003Z,22.58
2018-07-22T03:20:35.864Z,22.56
2018-07-22T03:21:37.183Z,22.57
2018-07-22T03:22:36.305Z,22.57
2018-07-22T03:23:36.274Z,22.57
2018-07-22T03:24:36.248Z,22.57
2018-07-22T03:25:36.144Z,22.57
2018-07-22T03:26:35.965Z,22.56
2018-07-22T03:27:36.232Z,22.57
2018-07-22T03:28:36.229Z,22.57
2018-07-22T03:29:36.166Z,22.58
2018-07-22T03:30:36.025Z,22.56
2018-07-22T03:31:36.292Z,22.57
2018-07-22T03:32:36.231Z,22.56
2018-07-22T03:33:36.183Z,22.58
2018-07-22T03:34:36.083Z,22.57
2018-07-22T03:35:36.004Z,22.57
2018-07-22T03:36:36.011Z,22.58
2018-07-22T03:37:36.140Z,22.57
2018-07-22T03:38:36.189Z,22.57
2018-07-22T03:39:36.326Z,22.56
2018-07-22T03:40:36.023Z,22.56
2018-07-22T03:41:36.409Z,22.57
2018-07-22T03:42:36.547Z,22.57
2018-07-22T03:43:36.359Z,22.56
2018-07-22T03:44:36.144Z,22.56
2018-07-22T03:45:36.220Z,22.56
2018-07-22T03:46:36.148Z,22.57
2018-07-22T03:47:36.290Z,22.56
2018-07-22T03:48:36.254Z,22.56
2018-07-22T03:49:35.975Z,22.56
2018-07-22T03:50:36.212Z,22.57
2018-07-22T03:51:36.046Z,22.57
2018-07-22T03:52:36.194Z,22.56
2018-07-22T03:53:45.901Z,22.56
2018-07-22T03:54:36.295Z,22.56
2018-07-22T03:55:36.284Z,22.56
2018-07-22T03:56:36.240Z,22.56
2018-07-22T03:57:35.960Z,22.56
2018-07-22T03:58:36.248Z,22.57
2018-07-22T03:59:36.120Z,22.56
2018-07-22T04:00:36.189Z,22.56
2018-07-22T04:01:36.153Z,22.56
2018-07-22T04:02:36.203Z,22.56
2018-07-22T04:03:36.094Z,22.56
2018-07-22T04:04:36.014Z,22.56
2018-07-22T04:05:36.113Z,22.56
2018-07-22T04:06:36.440Z,22.55
2018-07-22T04:07:36.338Z,22.55
2018-07-22T04:08:36.017Z,22.56
2018-07-22T04:09:35.971Z,22.56
2018-07-22T04:10:36.410Z,22.56
2018-07-22T04:11:36.125Z,22.56
2018-07-22T04:12:35.955Z,22.56
2018-07-22T04:13:36.249Z,22.55
2018-07-22T04:14:36.215Z,22.56
2018-07-22T04:15:36.635Z,22.56
2018-07-22T04:16:36.185Z,22.56
2018-07-22T04:17:36.223Z,22.55
2018-07-22T04:18:36.019Z,22.56
2018-07-22T04:19:36.200Z,22.56
2018-07-22T04:20:36.227Z,22.55
2018-07-22T04:21:37.659Z,22.56
2018-07-22T04:22:36.328Z,22.55
2018-07-22T04:23:36.074Z,22.55
2018-07-22T04:24:36.378Z,22.55
2018-07-22T04:25:36.217Z,22.55
2018-07-22T04:26:36.257Z,22.55
2018-07-22T04:27:35.969Z,22.55
2018-07-22T04:28:36.323Z,22.55
2018-07-22T04:29:36.324Z,22.55
2018-07-22T04:30:36.208Z,22.57
2018-07-22T04:31:36.130Z,22.56
2018-07-22T04:32:36.203Z,22.55
2018-07-22T04:33:36.014Z,22.56
2018-07-22T04:34:36.132Z,22.55
2018-07-22T04:35:36.125Z,22.55
2018-07-22T04:36:35.967Z,22.55
2018-07-22T04:37:36.094Z,22.55
2018-07-22T04:38:36.037Z,22.56
2018-07-22T04:39:36.148Z,22.56
2018-07-22T04:40:36.175Z,22.55
2018-07-22T04:41:36.244Z,22.55
2018-07-22T04:42:36.127Z,22.55
2018-07-22T04:43:36.164Z,22.56
2018-07-22T04:44:36.158Z,22.55
2018-07-22T04:45:35.925Z,22.55
2018-07-22T04:46:36.185Z,22.55
2018-07-22T04:47:36.120Z,22.55
2018-07-22T04:48:36.353Z,22.55
2018-07-22T04:49:36.160Z,22.55
2018-07-22T04:50:36.111Z,22.54
2018-07-22T04:51:36.347Z,22.54
2018-07-22T04:52:36.360Z,22.55
2018-07-22T04:53:36.109Z,22.54
2018-07-22T04:54:35.950Z,22.55
2018-07-22T04:55:36.159Z,22.55
2018-07-22T04:56:36.113Z,22.55
2018-07-22T04:57:36.289Z,22.55
2018-07-22T04:58:36.265Z,22.56
2018-07-22T04:59:36.788Z,22.54
2018-07-22T05:00:35.898Z,22.55
2018-07-22T05:01:36.225Z,22.55
2018-07-22T05:02:36.271Z,22.55
2018-07-22T05:03:36.019Z,22.54
2018-07-22T05:04:36.142Z,22.55
2018-07-22T05:05:36.007Z,22.54
2018-07-22T05:06:36.173Z,22.55
2018-07-22T05:07:36.538Z,22.54
2018-07-22T05:08:36.076Z,22.54
2018-07-22T05:09:35.882Z,22.54
2018-07-22T05:10:36.495Z,22.54
2018-07-22T05:11:36.519Z,22.54
2018-07-22T05:12:35.994Z,22.54
2018-07-22T05:13:36.101Z,22.55
2018-07-22T05:14:36.195Z,22.54
2018-07-22T05:15:36.159Z,22.54
2018-07-22T05:16:36.253Z,22.54
2018-07-22T05:17:36.422Z,22.54
2018-07-22T05:18:36.171Z,22.54
2018-07-22T05:19:35.970Z,22.54
2018-07-22T05:20:36.029Z,22.54
2018-07-22T05:21:36.025Z,22.54
2018-07-22T05:22:36.112Z,22.54
2018-07-22T05:23:36.268Z,22.54
2018-07-22T05:24:36.092Z,22.53
2018-07-22T05:25:36.163Z,22.54
2018-07-22T05:26:36.091Z,22.54
2018-07-22T05:27:36.519Z,22.54
2018-07-22T05:28:35.983Z,22.54
2018-07-22T05:29:36.140Z,22.54
2018-07-22T05:30:35.979Z,22.54
2018-07-22T05:31:36.205Z,22.53
2018-07-22T05:32:36.252Z,22.54
2018-07-22T05:33:36.519Z,22.53
2018-07-22T05:34:35.920Z,22.54
2018-07-22T05:35:36.261Z,22.54
2018-07-22T05:36:36.324Z,22.54
2018-07-22T05:37:36.305Z,22.53
2018-07-22T05:38:36.508Z,22.54
2018-07-22T05:39:35.906Z,22.54
2018-07-22T05:40:36.015Z,22.54
2018-07-22T05:41:36.004Z,22.54
2018-07-22T05:42:36.272Z,22.53
2018-07-22T05:43:36.025Z,22.54
2018-07-22T05:44:36.085Z,22.53
2018-07-22T05:45:35.998Z,22.54
2018-07-22T05:46:35.986Z,22.54
2018-07-22T05:47:35.981Z,22.53
2018-07-22T05:48:35.968Z,22.52
2018-07-22T05:49:36.262Z,22.54
2018-07-22T05:50:36.224Z,22.54
2018-07-22T05:51:36.059Z,22.54
2018-07-22T05:52:36.209Z,22.53
2018-07-22T05:53:36.207Z,22.54
2018-07-22T05:54:36.014Z,22.53
2018-07-22T05:55:36.384Z,22.53
2018-07-22T05:56:36.514Z,22.53
2018-07-22T05:57:35.942Z,22.53
2018-07-22T05:58:36.065Z,22.53
2018-07-22T05:59:36.017Z,22.53
2018-07-22T06:00:36.258Z,22.53
2018-07-22T06:01:36.145Z,22.53
2018-07-22T06:02:36.324Z,22.53
2018-07-22T06:03:35.942Z,22.53
2018-07-22T06:04:36.494Z,22.52
2018-07-22T06:05:36.155Z,22.54
2018-07-22T06:06:35.937Z,22.53
2018-07-22T06:07:36.204Z,22.54
2018-07-22T06:08:36.025Z,22.53
2018-07-22T06:09:36.013Z,22.53
2018-07-22T06:10:35.972Z,22.53
2018-07-22T06:11:35.997Z,22.53
2018-07-22T06:12:36.125Z,22.53
2018-07-22T06:13:36.033Z,22.53
2018-07-22T06:14:36.475Z,22.53
2018-07-22T06:15:35.958Z,22.53
2018-07-22T06:16:36.197Z,22.53
2018-07-22T06:17:35.967Z,22.53
2018-07-22T06:18:36.162Z,22.54
2018-07-22T06:19:36.196Z,22.53
2018-07-22T06:20:36.156Z,22.52
2018-07-22T06:21:35.974Z,22.53
2018-07-22T06:22:36.348Z,22.53
2018-07-22T06:23:36.486Z,22.53
2018-07-22T06:24:35.920Z,22.53
2018-07-22T06:25:36.130Z,22.53
2018-07-22T06:26:36.276Z,22.53
2018-07-22T06:27:36.513Z,22.53
2018-07-22T06:28:36.287Z,22.53
2018-07-22T06:29:36.022Z,22.53
2018-07-22T06:30:36.119Z,22.53
2018-07-22T06:31:36.688Z,22.53
2018-07-22T06:32:36.051Z,22.53
2018-07-22T06:33:35.910Z,22.52
2018-07-22T06:34:36.128Z,22.53
2018-07-22T06:35:36.326Z,22.52
2018-07-22T06:36:36.134Z,22.53
2018-07-22T06:37:36.436Z,22.53
2018-07-22T06:38:36.080Z,22.52
2018-07-22T06:39:36.022Z,22.51
2018-07-22T06:40:36.109Z,22.52
2018-07-22T06:41:36.119Z,22.52
2018-07-22T06:42:35.958Z,22.53
2018-07-22T06:43:36.033Z,22.53
2018-07-22T06:44:36.080Z,22.54
2018-07-22T06:45:36.307Z,22.54
2018-07-22T06:46:35.984Z,22.54
2018-07-22T06:47:36.039Z,22.54
2018-07-22T06:48:36.123Z,22.54
2018-07-22T06:49:36.215Z,22.54
2018-07-22T06:50:36.112Z,22.53
2018-07-22T06:51:36.016Z,22.54
2018-07-22T06:52:36.088Z,22.54
2018-07-22T06:53:36.122Z,22.54
2018-07-22T06:54:36.231Z,22.53
2018-07-22T06:55:36.146Z,22.54
2018-07-22T06:56:36.006Z,22.54
2018-07-22T06:57:36.014Z,22.54
2018-07-22T06:58:36.173Z,22.54
2018-07-22T06:59:36.163Z,22.54
2018-07-22T07:00:35.920Z,22.54
2018-07-22T07:01:35.971Z,22.54
2018-07-22T07:02:36.053Z,22.54
2018-07-22T07:03:36.102Z,22.54
2018-07-22T07:04:36.116Z,22.54
2018-07-22T07:05:36.443Z,22.54
2018-07-22T07:06:36.216Z,22.54
2018-07-22T07:07:36.075Z,22.54
2018-07-22T07:08:35.958Z,22.54
2018-07-22T07:09:36.090Z,22.54
2018-07-22T07:10:36.010Z,22.54
2018-07-22T07:11:35.973Z,22.54
2018-07-22T07:12:36.125Z,22.54
2018-07-22T07:13:36.216Z,22.54
2018-07-22T07:14:36.189Z,22.54
2018-07-22T07:15:36.209Z,22.54
2018-07-22T07:16:36.115Z,22.53
2018-07-22T07:17:36.159Z,22.53
2018-07-22T07:18:46.162Z,22.54
2018-07-22T07:19:35.971Z,22.53
2018-07-22T07:20:36.160Z,22.54
2018-07-22T07:21:36.150Z,22.53
2018-07-22T07:22:36.069Z,22.53
2018-07-22T07:23:35.980Z,22.53
2018-07-22T07:24:36.104Z,22.53
2018-07-22T07:25:35.979Z,22.53
2018-07-22T07:26:36.073Z,22.52
2018-07-22T07:27:36.068Z,22.53
2018-07-22T07:28:36.038Z,22.53
2018-07-22T07:29:36.148Z,22.54
2018-07-22T07:30:36.024Z,22.53
2018-07-22T07:31:35.982Z,22.53
2018-07-22T07:32:36.051Z,22.53
2018-07-22T07:33:36.431Z,22.53
2018-07-22T07:34:35.863Z,22.54
2018-07-22T07:35:36.305Z,22.54
2018-07-22T07:36:36.206Z,22.54
2018-07-22T07:37:35.834Z,22.53
2018-07-22T07:38:36.088Z,22.53
2018-07-22T07:39:36.173Z,22.54
2018-07-22T07:40:36.189Z,22.53
2018-07-22T07:41:36.088Z,22.53
2018-07-22T07:42:36.209Z,22.53
2018-07-22T07:43:36.075Z,22.54
2018-07-22T07:44:36.493Z,22.52
2018-07-22T07:45:36.022Z,22.53
2018-07-22T07:46:36.004Z,22.53
2018-07-22T07:47:36.086Z,22.53
2018-07-22T07:48:36.180Z,22.53
2018-07-22T07:49:36.225Z,22.53
2018-07-22T07:50:35.993Z,22.53
2018-07-22T07:51:36.227Z,22.53
2018-07-22T07:53:06.185Z,22.53
2018-07-22T07:53:36.197Z,22.53
2018-07-22T07:54:36.075Z,22.53
2018-07-22T07:55:35.971Z,22.53
2018-07-22T07:56:36.007Z,22.53
2018-07-22T07:57:36.127Z,22.53
2018-07-22T07:58:36.221Z,22.54
2018-07-22T07:59:36.267Z,22.53
2018-07-22T08:00:35.969Z,22.53
2018-07-22T08:01:36.042Z,22.53
2018-07-22T08:02:36.028Z,22.52
2018-07-22T08:03:36.069Z,22.53
2018-07-22T08:04:35.985Z,22.53
2018-07-22T08:05:36.806Z,22.53
2018-07-22T08:06:36.158Z,22.53
2018-07-22T08:07:36.187Z,22.53
2018-07-22T08:08:36.184Z,22.54
2018-07-22T08:09:36.298Z,22.53
2018-07-22T08:10:36.086Z,22.52
2018-07-22T08:11:36.478Z,22.53
2018-07-22T08:12:36.167Z,22.54
2018-07-22T08:13:36.040Z,22.56
2018-07-22T08:14:36.083Z,22.56
2018-07-22T08:15:36.061Z,22.57
2018-07-22T08:16:36.117Z,22.58
2018-07-22T08:17:35.971Z,22.57
2018-07-22T08:18:36.078Z,22.58
2018-07-22T08:19:35.929Z,22.6
2018-07-22T08:20:36.066Z,22.61
2018-07-22T08:21:36.187Z,22.63
2018-07-22T08:22:35.925Z,22.64
2018-07-22T08:23:35.940Z,22.64
2018-07-22T08:24:36.023Z,22.63
2018-07-22T08:25:36.023Z,22.64
2018-07-22T08:26:36.366Z,22.67
2018-07-22T08:27:35.902Z,22.67
2018-07-22T08:28:35.996Z,22.67
2018-07-22T08:29:36.012Z,22.68
2018-07-22T08:30:36.060Z,22.68
2018-07-22T08:31:35.907Z,22.69
2018-07-22T08:32:36.259Z,22.69
2018-07-22T08:33:36.014Z,22.71
2018-07-22T08:34:36.102Z,22.71
2018-07-22T08:35:36.018Z,22.71
2018-07-22T08:36:36.177Z,22.72
2018-07-22T08:37:36.202Z,22.72
2018-07-22T08:38:36.181Z,22.72
2018-07-22T08:39:35.981Z,22.72
2018-07-22T08:40:35.951Z,22.73
2018-07-22T08:41:36.238Z,22.74
2018-07-22T08:42:36.023Z,22.75
2018-07-22T08:43:36.262Z,22.76
2018-07-22T08:44:36.095Z,22.76
2018-07-22T08:45:36.004Z,22.77
2018-07-22T08:46:36.101Z,22.75
2018-07-22T08:47:36.104Z,22.76
2018-07-22T08:48:36.086Z,22.76
2018-07-22T08:49:35.912Z,22.75
2018-07-22T08:50:36.153Z,22.74
2018-07-22T08:51:36.009Z,22.75
2018-07-22T08:52:35.934Z,22.75
2018-07-22T08:53:36.038Z,22.74
2018-07-22T08:54:36.074Z,22.74
2018-07-22T08:55:36.256Z,22.74
2018-07-22T08:56:36.021Z,22.73
2018-07-22T08:57:35.983Z,22.72
2018-07-22T08:58:35.913Z,22.73
2018-07-22T08:59:35.833Z,22.72
2018-07-22T09:00:36.030Z,22.73
2018-07-22T09:01:36.127Z,22.75
2018-07-22T09:02:36.105Z,22.74
2018-07-22T09:03:36.002Z,22.74
2018-07-22T09:04:35.998Z,22.77
2018-07-22T09:05:36.001Z,22.76
2018-07-22T09:06:36.227Z,22.78
2018-07-22T09:07:35.938Z,22.78
2018-07-22T09:08:36.109Z,22.78
2018-07-22T09:09:35.973Z,22.78
2018-07-22T09:10:36.001Z,22.79
2018-07-22T09:11:36.041Z,22.79
2018-07-22T09:12:36.353Z,22.78
2018-07-22T09:13:35.992Z,22.78
2018-07-22T09:14:36.069Z,22.79
2018-07-22T09:15:36.177Z,22.78
2018-07-22T09:16:35.755Z,22.77
2018-07-22T09:17:36.157Z,22.77
2018-07-22T09:18:36.134Z,22.77
2018-07-22T09:19:35.921Z,22.77
2018-07-22T09:20:36.024Z,22.77
2018-07-22T09:21:35.938Z,22.76
2018-07-22T09:22:36.131Z,22.76
2018-07-22T09:23:36.052Z,22.75
2018-07-22T09:24:36.052Z,22.75
2018-07-22T09:25:35.943Z,22.75
2018-07-22T09:26:35.931Z,22.74
2018-07-22T09:27:36.015Z,22.75
2018-07-22T09:28:36.083Z,22.75
2018-07-22T09:29:36.065Z,22.73
2018-07-22T09:30:36.234Z,22.74
2018-07-22T09:31:36.121Z,22.74
2018-07-22T09:32:35.991Z,22.75
2018-07-22T09:33:36.186Z,22.74
2018-07-22T09:34:36.064Z,22.74
2018-07-22T09:35:35.961Z,22.73
2018-07-22T09:36:36.071Z,22.74
2018-07-22T09:37:35.961Z,22.74
2018-07-22T09:38:36.165Z,22.74
2018-07-22T09:39:35.964Z,22.73
2018-07-22T09:40:36.175Z,22.74
2018-07-22T09:41:36.092Z,22.75
2018-07-22T09:42:36.054Z,22.75
2018-07-22T09:43:35.963Z,22.75
2018-07-22T09:44:36.108Z,22.75
2018-07-22T09:45:36.002Z,22.75
2018-07-22T09:46:36.160Z,22.75
2018-07-22T09:47:36.126Z,22.75
2018-07-22T09:48:36.246Z,22.74
2018-07-22T09:49:35.955Z,22.74
2018-07-22T09:50:36.074Z,22.73
2018-07-22T09:51:36.277Z,22.73
2018-07-22T09:52:36.043Z,22.74
2018-07-22T09:53:36.111Z,22.74
2018-07-22T09:54:35.973Z,22.76
2018-07-22T09:55:36.148Z,22.76
2018-07-22T09:56:36.233Z,22.77
2018-07-22T09:57:36.129Z,22.77
2018-07-22T09:58:36.157Z,22.79
2018-07-22T09:59:35.960Z,22.79
2018-07-22T10:00:35.979Z,22.79
2018-07-22T10:01:37.022Z,22.79
2018-07-22T10:02:36.230Z,22.8
2018-07-22T10:03:36.228Z,22.8
2018-07-22T10:04:37.745Z,22.81
2018-07-22T10:05:35.983Z,22.81
2018-07-22T10:06:35.930Z,22.83
2018-07-22T10:07:36.199Z,22.83
2018-07-22T10:08:35.925Z,22.84
2018-07-22T10:09:36.048Z,22.83
2018-07-22T10:10:36.080Z,22.85
2018-07-22T10:11:36.248Z,22.86
2018-07-22T10:12:36.232Z,22.86
2018-07-22T10:13:36.102Z,22.87
2018-07-22T10:14:36.171Z,22.86
2018-07-22T10:15:36.051Z,22.87
2018-07-22T10:16:35.915Z,22.88
2018-07-22T10:17:36.165Z,22.89
2018-07-22T10:18:35.873Z,22.89
2018-07-22T10:19:36.044Z,22.89
2018-07-22T10:20:35.970Z,22.91
2018-07-22T10:21:35.970Z,22.9
2018-07-22T10:22:35.950Z,22.93
2018-07-22T10:23:36.007Z,22.91
2018-07-22T10:24:36.119Z,22.91
2018-07-22T10:25:35.872Z,22.92
2018-07-22T10:26:36.051Z,22.91
2018-07-22T10:27:35.950Z,22.94
2018-07-22T10:28:35.947Z,22.91
2018-07-22T10:29:35.921Z,22.92
2018-07-22T10:30:36.143Z,22.92
2018-07-22T10:31:35.944Z,22.92
2018-07-22T10:32:36.197Z,22.96
2018-07-22T10:33:36.022Z,22.94
2018-07-22T10:34:36.121Z,22.95
2018-07-22T10:35:35.921Z,22.98
2018-07-22T10:36:36.071Z,22.96
2018-07-22T10:37:35.944Z,22.96
2018-07-22T10:38:36.203Z,22.97
2018-07-22T10:39:36.254Z,22.96
2018-07-22T10:40:36.025Z,22.99
2018-07-22T10:41:36.385Z,22.99
2018-07-22T10:42:36.235Z,22.95
2018-07-22T10:43:36.099Z,22.94
2018-07-22T10:44:35.853Z,22.9
2018-07-22T10:45:35.969Z,22.91
2018-07-22T10:46:36.104Z,22.9
2018-07-22T10:47:36.015Z,22.89
2018-07-22T10:48:36.196Z,22.89
2018-07-22T10:49:36.040Z,22.89
2018-07-22T10:50:36.186Z,22.88
2018-07-22T10:51:36.114Z,22.89
2018-07-22T10:52:35.872Z,22.89
2018-07-22T10:53:36.006Z,22.89
2018-07-22T10:54:36.156Z,22.89
2018-07-22T10:55:35.987Z,22.88
2018-07-22T10:56:36.013Z,22.88
2018-07-22T10:57:35.839Z,22.88
2018-07-22T10:58:36.097Z,22.89
2018-07-22T10:59:35.914Z,22.89
2018-07-22T11:00:36.052Z,22.91
2018-07-22T11:01:35.946Z,22.91
2018-07-22T11:02:36.171Z,22.92
2018-07-22T11:03:36.227Z,22.94
2018-07-22T11:04:35.894Z,22.95
2018-07-22T11:05:36.047Z,22.96
2018-07-22T11:06:35.966Z,22.94
2018-07-22T11:07:36.104Z,22.94
2018-07-22T11:08:36.007Z,22.96
2018-07-22T11:09:35.905Z,22.96
2018-07-22T11:10:36.347Z,22.97
2018-07-22T11:11:36.039Z,22.96
2018-07-22T11:12:36.277Z,22.99
2018-07-22T11:13:35.894Z,22.99
2018-07-22T11:14:36.123Z,23
2018-07-22T11:15:36.137Z,23.03
2018-07-22T11:16:35.963Z,23.04
2018-07-22T11:17:35.946Z,23.03
2018-07-22T11:18:36.348Z,23.04
2018-07-22T11:19:36.129Z,23.04
2018-07-22T11:20:36.070Z,23.05
2018-07-22T11:21:36.042Z,23.05
2018-07-22T11:22:35.859Z,23.05
2018-07-22T11:23:36.133Z,23.04
2018-07-22T11:24:35.987Z,23.04
2018-07-22T11:25:35.973Z,23.06
2018-07-22T11:26:36.289Z,23.06
2018-07-22T11:27:36.254Z,23.05
2018-07-22T11:28:36.489Z,23.08
2018-07-22T11:29:36.033Z,23.06
2018-07-22T11:30:35.881Z,23.06
2018-07-22T11:31:36.019Z,23.06
2018-07-22T11:32:36.098Z,23.07
2018-07-22T11:33:35.945Z,23.07
2018-07-22T11:34:36.017Z,23.08
2018-07-22T11:35:35.867Z,23.06
2018-07-22T11:36:35.886Z,23.06
2018-07-22T11:37:35.992Z,23.04
2018-07-22T11:38:35.914Z,23.05
2018-07-22T11:39:35.957Z,23.04
2018-07-22T11:40:35.879Z,23.03
2018-07-22T11:41:36.038Z,23.04
2018-07-22T11:42:36.143Z,23.04
2018-07-22T11:43:36.286Z,23.03
2018-07-22T11:44:35.923Z,23.02
2018-07-22T11:45:35.983Z,23.02
2018-07-22T11:46:35.887Z,23.02
2018-07-22T11:47:35.842Z,23
2018-07-22T11:48:36.273Z,23.01
2018-07-22T11:49:35.991Z,23.01
2018-07-22T11:50:36.080Z,23
2018-07-22T11:51:36.103Z,23
2018-07-22T11:52:35.915Z,23
2018-07-22T11:53:36.053Z,23
2018-07-22T11:54:36.024Z,22.99
2018-07-22T11:55:35.982Z,22.98
2018-07-22T11:56:36.053Z,22.98
2018-07-22T11:57:35.848Z,22.98
2018-07-22T11:58:35.857Z,22.97
2018-07-22T11:59:36.473Z,22.98
2018-07-22T12:00:36.074Z,22.97
2018-07-22T12:01:36.180Z,22.97
2018-07-22T12:02:36.121Z,22.96
2018-07-22T12:03:35.854Z,22.97
2018-07-22T12:04:36.251Z,22.97
2018-07-22T12:05:36.075Z,22.98
2018-07-22T12:06:36.083Z,22.98
2018-07-22T12:07:36.026Z,22.97
2018-07-22T12:08:35.961Z,22.99
2018-07-22T12:09:36.341Z,22.98
2018-07-22T12:10:36.110Z,22.98
2018-07-22T12:11:36.204Z,22.97
2018-07-22T12:12:36.027Z,22.98
2018-07-22T12:13:35.827Z,22.97
2018-07-22T12:14:36.087Z,22.97
2018-07-22T12:15:36.129Z,22.98
2018-07-22T12:16:35.873Z,22.98
2018-07-22T12:17:36.047Z,22.97
2018-07-22T12:18:36.235Z,22.97
2018-07-22T12:19:36.151Z,22.98
2018-07-22T12:20:35.977Z,22.97
2018-07-22T12:21:35.957Z,22.97
2018-07-22T12:22:36.091Z,22.96
2018-07-22T12:23:35.988Z,22.96
2018-07-22T12:24:36.113Z,22.96
2018-07-22T12:25:35.820Z,22.96
2018-07-22T12:26:35.968Z,22.96
2018-07-22T12:27:35.995Z,22.94
2018-07-22T12:28:36.015Z,22.95
2018-07-22T12:29:35.939Z,22.95
2018-07-22T12:30:35.996Z,22.94
2018-07-22T12:31:35.953Z,22.95
2018-07-22T12:32:35.818Z,22.94
2018-07-22T12:33:36.102Z,22.94
2018-07-22T12:34:35.844Z,22.94
2018-07-22T12:35:36.397Z,22.93
2018-07-22T12:36:35.887Z,22.95
2018-07-22T12:37:36.128Z,22.94
2018-07-22T12:38:36.036Z,22.92
2018-07-22T12:39:36.132Z,22.91
2018-07-22T12:40:36.196Z,22.91
2018-07-22T12:41:35.963Z,22.91
2018-07-22T12:42:36.047Z,22.92
2018-07-22T12:43:35.940Z,22.92
2018-07-22T12:44:36.060Z,22.91
2018-07-22T12:45:35.923Z,22.91
2018-07-22T12:46:36.124Z,22.9
2018-07-22T12:47:36.058Z,22.91
2018-07-22T12:48:36.110Z,22.9
2018-07-22T12:49:36.236Z,22.91
2018-07-22T12:50:35.857Z,22.91
2018-07-22T12:51:35.928Z,22.9
2018-07-22T12:52:35.803Z,22.9
2018-07-22T12:53:36.223Z,22.9